Time;durP1;ratioP1;P1;durP2;ratioP2;P2;SDS_P1;SDS_P2;PMS_P1;PMS_P2;Temp;Humidity;BMP_temperature;BMP_pressure;BME280_temperature;BME280_humidity;BME280_pressure;Samples;Min_cycle;Max_cycle;Signal;HPM_P1;HPM_P2
2022/02/08 00:00:52;;;;;;;21.30;4.93;;;5.90;99.90;;;;;;5025652;28;20046;-64
2022/02/08 00:03:19;;;;;;;17.00;5.10;;;5.90;99.90;;;;;;5025212;28;20117;-64
2022/02/08 00:05:55;;;;;;;26.35;5.43;;;5.80;99.90;;;;;;5025264;28;20044;-64
2022/02/08 00:08:21;;;;;;;26.45;5.55;;;5.70;99.90;;;;;;5025353;28;20053;-64
2022/02/08 00:10:47;;;;;;;19.85;6.75;;;5.70;99.90;;;;;;5025100;28;20092;-64
2022/02/08 00:13:13;;;;;;;15.95;5.07;;;5.70;99.90;;;;;;5012083;28;20057;-64
2022/02/08 00:15:38;;;;;;;27.75;5.97;;;5.70;99.90;;;;;;5007735;28;20045;-64
2022/02/08 00:18:04;;;;;;;27.73;6.75;;;5.60;99.90;;;;;;5023807;28;20050;-64
2022/02/08 00:20:30;;;;;;;21.33;6.93;;;5.60;99.90;;;;;;5006635;28;20049;-64
2022/02/08 00:22:56;;;;;;;19.65;6.05;;;5.50;99.90;;;;;;5024521;28;20455;-64
2022/02/08 00:25:21;;;;;;;24.45;7.32;;;5.60;99.90;;;;;;5008795;28;20049;-63
2022/02/08 00:27:47;;;;;;;26.70;8.15;;;5.60;99.90;;;;;;5023880;28;20046;-64
2022/02/08 00:30:13;;;;;;;20.00;7.05;;;5.50;99.90;;;;;;5007316;28;20057;-64
2022/02/08 00:32:38;;;;;;;32.53;7.40;;;5.60;99.90;;;;;;5025095;28;20042;-64
2022/02/08 00:35:04;;;;;;;24.65;7.57;;;5.70;99.90;;;;;;5005481;28;20067;-64
2022/02/08 00:37:30;;;;;;;24.13;6.80;;;5.60;99.90;;;;;;5022432;28;20038;-64
2022/02/08 00:39:56;;;;;;;25.92;7.13;;;5.70;99.90;;;;;;5010995;28;20105;-64
2022/02/08 00:42:24;;;;;;;31.83;8.60;;;5.70;99.90;;;;;;5024816;28;20421;-64
2022/02/08 00:44:57;;;;;;;23.33;7.32;;;5.70;99.90;;;;;;5004971;28;20114;-64
2022/02/08 00:47:37;;;;;;;30.65;7.40;;;5.70;99.90;;;;;;5006909;28;20120;-64
2022/02/08 00:50:08;;;;;;;26.33;8.18;;;5.70;99.90;;;;;;5006685;28;20049;-64
2022/02/08 00:52:36;;;;;;;30.00;8.10;;;5.90;99.90;;;;;;5025839;28;20441;-64
2022/02/08 00:55:04;;;;;;;29.40;9.57;;;5.80;99.90;;;;;;5023002;28;20096;-64
2022/02/08 00:57:30;;;;;;;26.67;7.55;;;5.80;99.90;;;;;;5027344;28;20066;-64
2022/02/08 00:59:56;;;;;;;28.90;8.00;;;5.90;99.90;;;;;;5014081;28;20054;-64
2022/02/08 01:02:22;;;;;;;31.98;8.30;;;5.90;99.90;;;;;;5025153;28;20105;-64
2022/02/08 01:04:53;;;;;;;30.90;9.38;;;6.00;99.90;;;;;;5009891;28;20049;-64
2022/02/08 01:07:19;;;;;;;26.10;7.57;;;6.00;99.90;;;;;;5010893;28;20122;-64
2022/02/08 01:09:58;;;;;;;24.55;7.97;;;5.90;99.90;;;;;;5007981;28;20045;-64
2022/02/08 01:12:26;;;;;;;30.27;9.77;;;6.00;99.90;;;;;;5010031;28;20065;-64
2022/02/08 01:14:53;;;;;;;24.48;8.63;;;6.00;99.90;;;;;;5008422;28;20050;-64
2022/02/08 01:17:21;;;;;;;30.38;9.95;;;5.90;99.90;;;;;;5010842;28;20049;-64
2022/02/08 01:19:55;;;;;;;32.20;9.05;;;6.00;99.90;;;;;;5006115;28;20046;-64
2022/02/08 01:22:21;;;;;;;34.13;9.95;;;6.00;99.90;;;;;;4999089;28;20049;-63
2022/02/08 01:24:48;;;;;;;31.17;9.27;;;6.10;99.90;;;;;;5012677;28;20046;-64
2022/02/08 01:27:16;;;;;;;29.50;8.85;;;6.10;99.90;;;;;;5016419;28;20073;-64
2022/02/08 01:40:10;;;;;;;33.20;11.32;;;6.20;99.90;;;;;;5006802;28;20077;-64
2022/02/08 01:45:58;;;;;;;36.28;13.15;;;6.20;99.90;;;;;;5004900;28;20057;-64
2022/02/08 01:51:08;;;;;;;35.55;15.02;;;6.20;99.90;;;;;;5011731;28;20064;-64
2022/02/08 01:53:34;;;;;;;33.88;13.98;;;6.30;99.90;;;;;;5022421;28;20113;-64
2022/02/08 01:56:01;;;;;;;31.73;14.63;;;6.30;99.90;;;;;;5027391;28;20046;-64
2022/02/08 01:58:26;;;;;;;24.83;13.57;;;6.50;99.90;;;;;;5027080;28;20042;-64
2022/02/08 02:00:53;;;;;;;33.83;14.68;;;6.50;99.90;;;;;;5006389;28;20088;-63
2022/02/08 02:03:19;;;;;;;33.58;14.13;;;6.50;99.90;;;;;;5009409;28;20449;-63
2022/02/08 02:05:45;;;;;;;31.13;14.32;;;6.40;99.90;;;;;;5027186;28;20114;-64
2022/02/08 02:08:11;;;;;;;26.35;13.70;;;6.60;99.90;;;;;;5005445;28;20057;-63
2022/02/08 02:10:37;;;;;;;25.88;14.00;;;6.50;99.90;;;;;;5026555;28;20038;-64
2022/02/08 02:13:11;;;;;;;30.33;13.85;;;6.60;99.90;;;;;;5009519;28;20062;-64
2022/02/08 02:15:37;;;;;;;22.75;13.50;;;6.70;99.90;;;;;;5009575;28;20053;-64
2022/02/08 02:18:03;;;;;;;28.35;13.20;;;6.80;99.90;;;;;;5026882;28;20053;-64
2022/02/08 02:20:30;;;;;;;22.60;14.73;;;6.70;99.90;;;;;;5010054;28;20042;-64
2022/02/08 02:22:56;;;;;;;23.73;14.45;;;6.80;99.90;;;;;;5026580;28;20056;-64
2022/02/08 02:25:30;;;;;;;24.25;13.60;;;6.90;99.90;;;;;;5010005;28;20160;-64
2022/02/08 02:27:58;;;;;;;24.98;14.60;;;6.80;99.90;;;;;;5020819;28;20069;-63
2022/02/08 02:30:26;;;;;;;32.67;15.02;;;6.90;99.90;;;;;;5008479;28;20057;-64
2022/02/08 02:32:52;;;;;;;26.83;15.10;;;6.90;99.90;;;;;;5009226;28;20054;-63
2022/02/08 02:35:18;;;;;;;24.08;15.27;;;6.90;99.90;;;;;;4995356;28;20056;-64
2022/02/08 02:37:44;;;;;;;25.00;13.82;;;7.00;99.90;;;;;;5009359;28;20046;-64
2022/02/08 02:40:13;;;;;;;26.15;16.52;;;7.10;99.90;;;;;;5008543;28;20065;-64
2022/02/08 02:42:39;;;;;;;29.30;15.38;;;7.00;99.90;;;;;;5026193;28;20053;-64
2022/02/08 02:45:07;;;;;;;28.33;15.63;;;7.20;99.90;;;;;;5008619;28;20053;-63
2022/02/08 02:47:32;;;;;;;26.95;15.60;;;7.20;99.90;;;;;;5023880;28;20042;-64
2022/02/08 02:49:58;;;;;;;23.85;15.35;;;7.30;99.90;;;;;;5008217;28;20042;-64
2022/02/08 02:52:24;;;;;;;39.38;17.80;;;7.30;99.90;;;;;;5025845;28;20057;-64
2022/02/08 02:54:50;;;;;;;34.42;16.25;;;7.30;99.90;;;;;;5022830;28;20045;-64
2022/02/08 02:57:17;;;;;;;34.65;16.80;;;7.50;99.90;;;;;;5021795;28;20065;-64
2022/02/08 02:59:46;;;;;;;32.97;18.08;;;7.50;99.90;;;;;;5005941;28;20490;-64
2022/02/08 03:20:38;;;;;;;34.55;16.55;;;7.70;99.90;;;;;;5025216;28;20096;-64
2022/02/08 03:23:04;;;;;;;43.42;17.75;;;7.80;99.90;;;;;;5016501;28;20049;-64
2022/02/08 03:25:29;;;;;;;36.25;16.20;;;7.80;99.90;;;;;;5025873;28;20130;-63
2022/02/08 03:27:55;;;;;;;37.65;16.95;;;7.90;99.90;;;;;;5007973;28;20549;-64
2022/02/08 03:30:21;;;;;;;33.15;15.48;;;7.90;99.90;;;;;;5025546;28;20050;-64
2022/02/08 03:32:46;;;;;;;35.63;16.38;;;7.90;99.90;;;;;;5007772;28;20041;-64
2022/02/08 03:35:15;;;;;;;31.95;16.38;;;7.90;99.90;;;;;;5002885;28;20096;-63
2022/02/08 03:37:44;;;;;;;39.10;17.42;;;8.00;99.90;;;;;;5005042;28;20079;-64
2022/02/08 03:40:20;;;;;;;36.28;15.55;;;8.00;99.90;;;;;;5025609;28;20050;-64
2022/02/08 03:42:58;;;;;;;41.25;16.80;;;8.00;99.90;;;;;;5004029;28;20061;-64
2022/02/08 03:45:24;;;;;;;35.33;14.57;;;8.00;99.90;;;;;;5003703;28;20054;-64
2022/02/08 03:47:50;;;;;;;35.22;15.57;;;8.10;99.90;;;;;;4990988;28;20106;-64
2022/02/08 03:50:15;;;;;;;32.03;14.75;;;7.90;99.90;;;;;;5007328;28;20144;-64
2022/02/08 03:52:41;;;;;;;36.90;15.88;;;8.10;99.90;;;;;;5027395;28;20085;-64
2022/02/08 03:55:08;;;;;;;34.78;14.55;;;8.20;99.90;;;;;;5003641;28;20046;-63
2022/02/08 03:57:33;;;;;;;27.45;15.05;;;8.10;99.90;;;;;;5024465;28;20056;-64
2022/02/08 03:59:59;;;;;;;36.05;14.73;;;8.10;99.90;;;;;;5025857;28;20038;-64
2022/02/08 04:02:40;;;;;;;30.75;14.40;;;8.10;99.90;;;;;;5004705;28;20050;-64
2022/02/08 04:05:32;;;;;;;37.08;14.75;;;8.10;99.90;;;;;;5024812;28;20069;-64
2022/02/08 04:07:56;;;;;;;31.80;14.68;;;8.20;99.90;;;;;;5009556;28;20056;-64
2022/02/08 04:10:28;;;;;;;34.72;16.10;;;8.10;99.90;;;;;;5024484;28;20054;-64
2022/02/08 04:32:12;;;;;;;32.60;13.63;;;8.30;99.90;;;;;;5024262;28;20049;-64
2022/02/08 04:50:22;;;;;;;30.67;12.23;;;8.60;99.90;;;;;;4966782;28;20058;-64
2022/02/08 04:52:49;;;;;;;25.58;11.90;;;8.50;99.90;;;;;;4966299;28;20050;-65
2022/02/08 04:57:51;;;;;;;28.58;11.90;;;8.50;99.90;;;;;;4982908;28;20042;-64
2022/02/08 05:00:32;;;;;;;25.77;11.73;;;8.50;99.90;;;;;;4983963;28;20118;-64
2022/02/08 05:28:48;;;;;;;24.35;9.10;;;8.70;99.90;;;;;;5015111;28;20057;-64
2022/02/08 05:48:37;;;;;;;19.60;8.40;;;8.70;99.90;;;;;;5026942;28;20046;-64
2022/02/08 05:51:07;;;;;;;29.52;9.02;;;8.70;99.90;;;;;;5008956;28;20054;-64
2022/02/08 05:53:42;;;;;;;20.50;7.82;;;8.60;99.90;;;;;;5009698;28;20056;-64
2022/02/08 05:56:14;;;;;;;22.15;9.23;;;8.70;99.90;;;;;;5006630;28;20132;-64
2022/02/08 05:58:42;;;;;;;22.77;8.55;;;8.70;99.90;;;;;;5007928;28;20045;-64
2022/02/08 06:01:10;;;;;;;22.10;8.68;;;8.60;99.90;;;;;;5009803;28;20120;-64
2022/02/08 06:03:36;;;;;;;26.88;8.52;;;8.60;99.90;;;;;;5024841;28;20053;-64
2022/02/08 06:06:02;;;;;;;21.63;8.77;;;8.70;99.90;;;;;;4961280;28;20054;-64
2022/02/08 06:08:28;;;;;;;21.23;7.78;;;8.60;99.90;;;;;;5004665;28;20061;-64
2022/02/08 06:11:02;;;;;;;21.40;8.82;;;8.60;99.90;;;;;;5013319;28;20517;-65
2022/02/08 06:13:28;;;;;;;23.75;7.60;;;8.70;99.90;;;;;;5003935;28;20564;-66
2022/02/08 06:16:01;;;;;;;24.73;7.13;;;8.70;99.90;;;;;;4981572;28;20050;-65
2022/02/08 06:18:31;;;;;;;22.73;7.32;;;8.60;99.90;;;;;;5003599;28;20050;-66
2022/02/08 06:20:57;;;;;;;24.23;6.57;;;8.70;99.90;;;;;;5020404;28;20046;-65
2022/02/08 06:23:24;;;;;;;24.58;5.80;;;8.80;99.90;;;;;;4999203;28;20069;-65
2022/02/08 06:25:50;;;;;;;22.08;5.55;;;8.80;99.90;;;;;;5010776;28;20054;-65
2022/02/08 06:28:17;;;;;;;21.50;6.57;;;8.80;99.90;;;;;;5020612;28;20038;-65
2022/02/08 06:30:45;;;;;;;22.38;5.72;;;8.60;99.90;;;;;;5013368;28;20053;-66
2022/02/08 06:33:13;;;;;;;22.05;5.35;;;8.70;99.90;;;;;;5001196;28;20667;-66
2022/02/08 06:35:39;;;;;;;19.17;5.10;;;8.60;99.90;;;;;;5007307;28;20124;-65
2022/02/08 06:38:08;;;;;;;22.38;5.78;;;8.70;99.90;;;;;;4984883;28;20049;-65
2022/02/08 06:40:36;;;;;;;18.63;5.07;;;8.70;99.90;;;;;;4991118;28;20097;-65
2022/02/08 06:43:03;;;;;;;19.60;4.95;;;8.70;99.90;;;;;;5002749;28;20293;-65
2022/02/08 06:45:29;;;;;;;16.33;4.55;;;8.70;99.90;;;;;;4986429;28;20046;-66
2022/02/08 06:47:55;;;;;;;23.45;5.53;;;8.70;99.90;;;;;;4996134;28;20066;-65
2022/02/08 06:50:21;;;;;;;23.13;6.22;;;8.60;99.90;;;;;;5007777;28;20049;-65
2022/02/08 06:52:47;;;;;;;21.70;4.38;;;8.60;99.90;;;;;;4996166;28;20052;-65
2022/02/08 06:55:13;;;;;;;19.08;4.63;;;8.70;99.90;;;;;;4991020;28;20153;-65
2022/02/08 06:57:59;;;;;;;18.98;4.20;;;8.80;99.90;;;;;;5013513;28;20770;-65
2022/02/08 07:00:32;;;;;;;22.20;4.70;;;8.70;99.90;;;;;;5005089;28;20046;-65
2022/02/08 07:02:57;;;;;;;19.00;3.90;;;8.70;99.90;;;;;;5000699;28;20557;-65
2022/02/08 07:05:23;;;;;;;19.25;4.15;;;8.70;99.90;;;;;;4962285;28;20088;-65
2022/02/08 07:07:49;;;;;;;16.77;3.83;;;8.80;99.90;;;;;;5013479;28;20034;-65
2022/02/08 07:10:14;;;;;;;19.52;4.03;;;8.70;99.90;;;;;;5010920;28;20053;-65
2022/02/08 07:12:40;;;;;;;15.25;3.70;;;8.70;99.90;;;;;;5002014;28;20454;-64
2022/02/08 07:15:12;;;;;;;18.35;4.50;;;8.70;99.90;;;;;;4974724;28;20050;-63
2022/02/08 07:17:37;;;;;;;17.27;4.05;;;8.80;99.90;;;;;;5002902;28;20053;-64
2022/02/08 07:20:04;;;;;;;20.75;4.28;;;8.70;99.90;;;;;;4990641;28;20518;-64
2022/02/08 07:22:31;;;;;;;26.88;4.53;;;8.80;99.90;;;;;;4998565;28;20132;-64
2022/02/08 07:25:00;;;;;;;12.75;3.53;;;8.80;99.90;;;;;;5019250;28;20580;-63
2022/02/08 07:27:26;;;;;;;14.48;3.67;;;8.80;99.90;;;;;;4993690;28;20054;-64
2022/02/08 07:29:54;;;;;;;17.45;3.47;;;8.80;99.90;;;;;;5000983;28;20061;-64
2022/02/08 07:32:28;;;;;;;14.50;3.40;;;8.80;99.90;;;;;;4988250;28;20308;-64
2022/02/08 07:35:09;;;;;;;13.88;2.92;;;8.80;99.90;;;;;;4984287;28;20050;-64
2022/02/08 07:42:58;;;;;;;18.23;3.63;;;8.80;99.90;;;;;;4988956;28;20133;-64
2022/02/08 07:45:24;;;;;;;11.80;2.95;;;8.80;99.90;;;;;;4976620;28;20347;-64
2022/02/08 07:47:51;;;;;;;19.08;3.65;;;8.90;99.90;;;;;;4987863;28;20117;-64
2022/02/08 07:50:21;;;;;;;15.05;3.33;;;8.70;99.90;;;;;;4986895;28;20054;-64
2022/02/08 07:52:47;;;;;;;15.20;3.03;;;8.80;99.90;;;;;;4987800;28;20038;-64
2022/02/08 07:55:12;;;;;;;13.88;3.15;;;8.90;99.90;;;;;;4987445;28;20052;-64
2022/02/08 07:57:39;;;;;;;14.85;2.92;;;8.80;99.90;;;;;;4992664;28;20110;-64
2022/02/08 08:00:05;;;;;;;15.02;3.47;;;8.90;99.90;;;;;;5019499;28;20108;-64
2022/02/08 08:02:31;;;;;;;18.05;2.95;;;8.90;99.90;;;;;;5007946;28;20145;-68
2022/02/08 08:04:57;;;;;;;19.55;3.90;;;8.90;99.90;;;;;;4979102;28;20085;-67
2022/02/08 08:07:24;;;;;;;14.98;3.10;;;8.90;99.90;;;;;;4973480;28;20079;-66
2022/02/08 08:09:50;;;;;;;18.73;3.40;;;9.00;99.90;;;;;;4989258;28;20121;-66
2022/02/08 08:12:16;;;;;;;15.70;2.90;;;8.90;99.90;;;;;;4987134;28;20116;-66
2022/02/08 08:14:43;;;;;;;16.45;3.85;;;8.90;99.90;;;;;;4988453;28;20050;-66
2022/02/08 08:17:35;;;;;;;16.85;3.40;;;9.00;99.90;;;;;;4985067;28;20114;-66
2022/02/08 08:20:01;;;;;;;16.52;3.17;;;8.90;99.90;;;;;;4986526;28;20050;-66
2022/02/08 08:22:26;;;;;;;12.90;3.72;;;9.00;99.90;;;;;;4972812;28;20078;-66
2022/02/08 08:24:52;;;;;;;16.00;3.45;;;8.90;99.90;;;;;;4985709;28;20069;-67
2022/02/08 08:27:18;;;;;;;17.42;3.85;;;8.90;99.90;;;;;;4987362;28;20152;-68
2022/02/08 08:29:44;;;;;;;21.95;3.20;;;9.00;99.90;;;;;;5000678;28;20080;-65
2022/02/08 08:32:11;;;;;;;15.27;2.83;;;9.00;99.90;;;;;;4990823;28;20050;-66
2022/02/08 08:34:37;;;;;;;15.55;3.20;;;9.10;99.90;;;;;;5001546;28;20312;-66
2022/02/08 08:37:04;;;;;;;11.73;2.92;;;9.00;99.90;;;;;;4989984;28;20451;-66
2022/02/08 08:39:40;;;;;;;20.38;3.75;;;8.90;99.90;;;;;;5017309;28;20045;-66
2022/02/08 08:42:22;;;;;;;13.48;3.17;;;9.00;99.90;;;;;;4987483;28;20057;-66
2022/02/08 08:48:25;;;;;;;17.48;3.60;;;9.10;99.90;;;;;;4987849;28;20592;-66
2022/02/08 08:53:16;;;;;;;19.60;3.63;;;9.10;99.90;;;;;;4998170;28;20061;-67
2022/02/08 08:55:42;;;;;;;26.55;4.15;;;9.20;99.90;;;;;;5008265;28;20095;-66
2022/02/08 08:58:08;;;;;;;14.63;2.92;;;9.10;99.90;;;;;;5001264;28;20077;-66
2022/02/08 09:00:34;;;;;;;15.68;3.33;;;9.20;99.90;;;;;;4991379;28;20050;-66
2022/02/08 09:02:59;;;;;;;12.13;2.65;;;9.20;99.90;;;;;;5000882;28;20301;-66
2022/02/08 09:05:25;;;;;;;17.55;2.72;;;9.20;99.90;;;;;;4978663;28;20145;-68
2022/02/08 09:07:51;;;;;;;15.75;2.95;;;9.10;99.90;;;;;;4998830;28;20137;-65
2022/02/08 09:10:21;;;;;;;16.25;2.90;;;9.10;99.90;;;;;;5016294;28;20042;-65
2022/02/08 09:15:51;;;;;;;18.05;3.10;;;9.20;99.90;;;;;;4978723;28;20058;-66
2022/02/08 09:21:34;;;;;;;13.88;2.85;;;9.30;99.90;;;;;;4982156;28;20049;-66
2022/02/08 09:24:35;;;;;;;17.10;3.15;;;9.20;99.90;;;;;;4998928;28;20211;-66
2022/02/08 09:29:48;;;;;;;18.60;3.90;;;9.30;99.90;;;;;;4988740;28;20092;-66
2022/02/08 09:32:27;;;;;;;17.17;3.38;;;9.20;99.90;;;;;;4982284;28;20112;-67
2022/02/08 09:34:53;;;;;;;14.90;4.13;;;9.30;99.90;;;;;;5002330;28;20052;-70
2022/02/08 09:37:19;;;;;;;17.13;3.25;;;9.20;99.90;;;;;;4989422;28;20120;-66
2022/02/08 09:39:49;;;;;;;15.95;4.35;;;9.20;99.90;;;;;;5020427;28;20061;-65
2022/02/08 09:42:15;;;;;;;17.83;2.95;;;9.30;99.90;;;;;;5009751;28;20088;-65
2022/02/08 09:44:41;;;;;;;12.95;3.22;;;9.30;99.90;;;;;;5001257;28;20065;-66
2022/02/08 09:47:12;;;;;;;18.33;4.32;;;9.20;99.90;;;;;;5006623;28;20137;-66
2022/02/08 09:49:50;;;;;;;17.13;3.58;;;9.40;99.90;;;;;;4986137;28;20037;-67
2022/02/08 09:52:19;;;;;;;11.40;2.85;;;9.30;99.90;;;;;;4989571;28;20046;-66
2022/02/08 09:54:45;;;;;;;14.73;3.35;;;9.40;99.90;;;;;;5010982;28;20049;-66
2022/02/08 09:57:12;;;;;;;14.65;2.92;;;9.50;99.90;;;;;;5005837;28;20054;-66
2022/02/08 09:59:38;;;;;;;16.27;2.97;;;9.50;99.90;;;;;;4996782;28;20129;-66
2022/02/08 10:02:04;;;;;;;11.13;2.85;;;9.50;99.90;;;;;;4992918;28;20155;-66
2022/02/08 10:04:30;;;;;;;13.02;2.95;;;9.50;99.90;;;;;;5004299;28;20037;-66
2022/02/08 10:06:56;;;;;;;12.77;2.50;;;9.60;99.90;;;;;;5001798;28;20061;-66
2022/02/08 10:09:31;;;;;;;13.52;3.03;;;9.60;99.90;;;;;;5003438;28;20561;-66
2022/02/08 10:11:58;;;;;;;15.07;3.72;;;9.60;99.90;;;;;;4989615;28;20053;-66
2022/02/08 10:14:38;;;;;;;19.45;4.05;;;9.70;99.90;;;;;;4984415;28;20084;-66
2022/02/08 10:21:19;;;;;;;13.50;3.53;;;9.70;99.90;;;;;;4928542;29;20299;-66
2022/02/08 10:23:09;;;;;;;14.35;3.03;;;9.80;99.90;;;;;;4915451;29;20486;-67
2022/02/08 10:26:00;;;;;;;13.65;2.80;;;9.80;99.90;;;;;;4927341;29;20516;-68
2022/02/08 10:28:42;;;;;;;13.45;2.70;;;9.90;99.90;;;;;;4910871;29;20075;-65
2022/02/08 10:39:26;;;;;;;17.88;2.88;;;9.90;99.90;;;;;;4941110;29;20130;-66
2022/02/08 10:41:52;;;;;;;20.60;3.72;;;9.90;99.90;;;;;;4928733;29;20120;-66
2022/02/08 10:44:17;;;;;;;10.40;2.25;;;9.90;99.90;;;;;;4926349;29;20071;-65
2022/02/08 10:46:43;;;;;;;8.35;2.50;;;9.90;99.90;;;;;;4934253;28;20062;-66
2022/02/08 10:49:11;;;;;;;13.40;2.72;;;9.90;99.90;;;;;;4924933;29;20108;-66
2022/02/08 10:51:46;;;;;;;14.88;2.75;;;9.90;99.90;;;;;;4899948;29;20138;-65
2022/02/08 10:54:31;;;;;;;13.43;2.80;;;9.90;99.90;;;;;;4965074;28;20072;-65
2022/02/08 10:57:05;;;;;;;11.68;3.00;;;9.90;99.90;;;;;;4990508;28;20046;-65
2022/02/08 10:59:40;;;;;;;15.13;3.65;;;9.90;99.90;;;;;;4987490;28;20053;-66
2022/02/08 11:02:17;;;;;;;11.68;3.00;;;9.90;99.90;;;;;;4994083;28;20053;-65
2022/02/08 11:04:51;;;;;;;12.00;2.25;;;9.90;99.90;;;;;;5018399;28;20161;-66
2022/02/08 11:07:56;;;;;;;15.25;2.97;;;9.80;99.90;;;;;;4978156;28;20109;-65
2022/02/08 11:10:44;;;;;;;14.32;2.58;;;9.90;99.90;;;;;;5007600;28;20049;-65
2022/02/08 11:16:04;;;;;;;15.15;2.92;;;9.90;99.90;;;;;;4991591;28;20661;-65
2022/02/08 11:21:38;;;;;;;12.20;2.42;;;10.00;99.90;;;;;;4984642;28;20046;-66
2022/02/08 11:24:26;;;;;;;12.93;2.97;;;10.00;99.90;;;;;;4986353;28;20058;-65
2022/02/08 11:26:58;;;;;;;14.05;2.80;;;10.00;99.90;;;;;;4984641;28;20449;-65
2022/02/08 11:29:39;;;;;;;9.77;3.58;;;10.00;99.90;;;;;;4991259;28;20050;-65
2022/02/08 11:32:18;;;;;;;14.13;3.03;;;10.00;99.90;;;;;;4982703;28;20482;-66
2022/02/08 11:43:34;;;;;;;9.95;3.08;;;10.10;99.90;;;;;;4998637;28;20043;-65
2022/02/08 11:55:16;;;;;;;14.23;2.63;;;10.10;99.90;;;;;;4962159;28;20054;-65
2022/02/08 12:00:43;;;;;;;16.77;3.30;;;10.10;99.90;;;;;;4950164;28;20066;-64
2022/02/08 12:08:19;;;;;;;11.45;3.17;;;10.00;99.90;;;;;;4968085;28;20142;-65
2022/02/08 12:11:09;;;;;;;14.63;2.72;;;10.00;99.90;;;;;;4961197;28;20058;-65
2022/02/08 12:27:07;;;;;;;11.88;2.58;;;10.00;99.90;;;;;;4935467;28;20063;-65
2022/02/08 12:28:40;;;;;;;19.60;3.22;;;10.10;99.90;;;;;;4982723;28;20049;-65
2022/02/08 12:33:57;;;;;;;12.80;2.38;;;10.10;99.90;;;;;;4948967;28;20110;-65
2022/02/08 12:39:44;;;;;;;14.77;2.83;;;10.10;99.90;;;;;;4951238;28;20049;-65
2022/02/08 12:55:51;;;;;;;11.50;3.00;;;10.30;99.90;;;;;;4963703;28;20062;-65
2022/02/08 12:58:38;;;;;;;14.23;3.47;;;10.30;99.90;;;;;;4955713;28;20049;-65
2022/02/08 13:01:24;;;;;;;19.20;2.63;;;10.30;99.90;;;;;;4980139;28;20066;-65
2022/02/08 13:04:06;;;;;;;12.25;2.97;;;10.30;99.90;;;;;;5010485;28;20130;-65
2022/02/08 13:14:30;;;;;;;9.80;2.40;;;10.30;99.90;;;;;;4968099;28;20050;-66
2022/02/08 14:03:21;;;;;;;16.02;2.67;;;10.10;99.90;;;;;;4969946;28;20042;-65
2022/02/08 14:05:46;;;;;;;15.65;2.53;;;10.10;99.90;;;;;;4957028;28;20058;-66
2022/02/08 14:16:30;;;;;;;14.95;2.83;;;10.10;99.90;;;;;;5017481;28;20076;-67
2022/02/08 15:09:26;;;;;;;13.93;2.83;;;10.00;99.90;;;;;;4951530;28;20649;-69
2022/02/08 15:12:28;;;;;;;14.32;2.58;;;10.00;99.90;;;;;;4982896;28;20255;-68
2022/02/08 15:14:50;;;;;;;16.30;2.92;;;10.00;99.90;;;;;;4983171;28;20065;-69
2022/02/08 15:17:17;;;;;;;12.52;3.58;;;10.00;99.90;;;;;;4987230;28;20050;-69
2022/02/08 15:19:45;;;;;;;16.02;3.25;;;10.00;99.90;;;;;;4995793;28;20052;-68
2022/02/08 15:22:11;;;;;;;16.63;2.95;;;9.90;99.90;;;;;;4975106;28;20136;-70
2022/02/08 15:24:39;;;;;;;15.90;2.92;;;10.00;99.90;;;;;;5002513;28;20053;-68
2022/02/08 15:27:07;;;;;;;15.68;2.55;;;9.90;99.90;;;;;;4991772;28;20053;-65
2022/02/08 15:29:33;;;;;;;11.90;3.15;;;10.00;99.90;;;;;;4995287;28;20054;-65
2022/02/08 15:32:01;;;;;;;18.33;3.53;;;9.90;99.90;;;;;;4990902;28;20057;-68
2022/02/08 15:34:27;;;;;;;13.00;2.72;;;10.00;99.90;;;;;;5001971;28;20049;-65
2022/02/08 15:36:55;;;;;;;16.08;2.85;;;10.00;99.90;;;;;;5020019;28;20125;-65
2022/02/08 15:39:24;;;;;;;20.08;3.17;;;10.00;99.90;;;;;;4991584;28;20318;-65
2022/02/08 15:41:50;;;;;;;18.17;2.90;;;10.00;99.90;;;;;;5002191;28;20278;-66
2022/02/08 15:44:22;;;;;;;13.52;2.90;;;10.00;99.90;;;;;;4992424;28;20053;-65
2022/02/08 15:46:51;;;;;;;16.05;2.95;;;9.90;99.90;;;;;;5000162;28;20505;-65
2022/02/08 15:49:17;;;;;;;15.38;3.22;;;10.00;99.90;;;;;;4989594;28;20053;-65
2022/02/08 15:51:56;;;;;;;17.13;3.22;;;10.00;99.90;;;;;;4998875;28;20053;-66
2022/02/08 15:54:57;;;;;;;16.75;3.03;;;10.00;99.90;;;;;;5007580;28;20041;-65
2022/02/08 16:07:57;;;;;;;13.73;2.50;;;9.90;99.90;;;;;;4985377;28;20065;-65
2022/02/08 16:10:34;;;;;;;15.90;2.75;;;9.90;99.90;;;;;;4986790;28;20489;-66
2022/02/08 16:21:05;;;;;;;20.58;3.83;;;10.00;99.90;;;;;;4998802;28;20061;-65
2022/02/08 16:26:28;;;;;;;13.45;2.40;;;9.90;99.90;;;;;;5001004;28;20054;-65
2022/02/08 16:29:22;;;;;;;14.52;3.10;;;9.90;99.90;;;;;;4990853;28;20416;-65
2022/02/08 16:53:46;;;;;;;12.40;2.67;;;9.90;99.90;;;;;;4916048;29;20065;-66
2022/02/08 16:56:24;;;;;;;9.32;2.40;;;9.80;99.90;;;;;;4927125;29;20488;-69
2022/02/08 17:01:18;;;;;;;13.20;3.40;;;9.70;99.90;;;;;;4938540;29;20102;-68
2022/02/08 17:03:46;;;;;;;10.88;2.33;;;9.70;99.90;;;;;;4948347;28;20203;-68
2022/02/08 17:06:14;;;;;;;16.60;3.08;;;9.70;99.90;;;;;;4946285;28;20047;-69
2022/02/08 17:08:40;;;;;;;16.45;3.10;;;9.80;99.90;;;;;;4930303;29;20473;-69
2022/02/08 17:11:07;;;;;;;12.13;2.30;;;9.70;99.90;;;;;;4941094;28;20094;-68
2022/02/08 17:13:49;;;;;;;12.43;2.42;;;9.80;99.90;;;;;;4930090;29;20062;-68
2022/02/08 17:16:30;;;;;;;8.43;2.30;;;9.80;99.90;;;;;;4973929;28;20113;-68
2022/02/08 17:44:58;;;;;;;13.60;2.83;;;9.80;99.90;;;;;;5001762;28;20445;-67
2022/02/08 17:46:17;;;;;;;13.23;2.53;;;9.80;99.90;;;;;;5005449;28;20062;-67
2022/02/08 17:48:43;;;;;;;16.02;3.50;;;9.70;99.90;;;;;;4992393;28;20060;-66
2022/02/08 17:51:09;;;;;;;12.25;2.60;;;9.60;99.90;;;;;;4988905;28;20038;-66
2022/02/08 17:53:35;;;;;;;16.17;2.83;;;9.60;99.90;;;;;;4995560;28;20117;-66
2022/02/08 17:56:01;;;;;;;12.00;3.03;;;9.60;99.90;;;;;;5006513;28;20060;-67
2022/02/08 17:58:26;;;;;;;15.77;3.53;;;9.50;99.90;;;;;;4997652;28;20046;-67
2022/02/08 18:00:53;;;;;;;13.43;3.28;;;9.50;99.90;;;;;;4990068;28;20061;-66
2022/02/08 18:03:19;;;;;;;15.23;3.53;;;9.40;99.90;;;;;;4996348;28;20074;-66
2022/02/08 18:05:45;;;;;;;17.92;3.70;;;9.30;99.90;;;;;;4966906;28;20042;-67
2022/02/08 18:08:13;;;;;;;18.95;4.22;;;9.30;99.90;;;;;;4993931;28;20098;-67
2022/02/08 18:10:48;;;;;;;14.77;4.07;;;9.30;99.90;;;;;;4991905;28;20042;-67
2022/02/08 18:13:17;;;;;;;20.30;4.53;;;9.20;99.90;;;;;;4980648;28;20050;-67
2022/02/08 18:15:43;;;;;;;15.68;4.10;;;9.20;99.90;;;;;;5006723;28;20109;-67
2022/02/08 18:18:20;;;;;;;19.52;5.43;;;9.30;99.90;;;;;;4998431;28;20050;-67
2022/02/08 18:20:51;;;;;;;17.42;4.20;;;9.20;99.90;;;;;;4986874;28;20049;-67
2022/02/08 19:09:26;;;;;;;13.52;3.15;;;9.60;99.90;;;;;;4989103;28;20090;-68
2022/02/08 19:12:29;;;;;;;13.38;3.08;;;9.50;99.90;;;;;;4994650;28;20038;-68
2022/02/08 19:20:10;;;;;;;11.43;3.92;;;9.50;99.90;;;;;;4979871;28;20335;-69
2022/02/08 19:22:35;;;;;;;13.93;4.03;;;9.40;99.90;;;;;;4990017;28;20042;-69
2022/02/08 19:25:02;;;;;;;12.05;4.50;;;9.40;99.90;;;;;;4989215;28;20073;-65
2022/02/08 19:27:27;;;;;;;15.88;6.18;;;9.50;99.90;;;;;;5017554;28;20049;-68
2022/02/08 19:29:53;;;;;;;14.15;5.13;;;9.40;99.90;;;;;;4982793;28;20046;-68
2022/02/08 19:32:19;;;;;;;17.25;5.32;;;9.40;99.90;;;;;;4980794;28;20038;-69
2022/02/08 19:34:46;;;;;;;15.18;5.97;;;9.30;99.90;;;;;;4980413;28;20117;-69
2022/02/08 19:37:14;;;;;;;14.70;5.93;;;9.40;99.90;;;;;;4990503;28;20235;-69
2022/02/08 19:39:41;;;;;;;16.17;6.75;;;9.30;99.90;;;;;;4995510;28;20129;-69
2022/02/08 19:42:08;;;;;;;15.98;6.82;;;9.30;99.90;;;;;;4987143;28;20085;-68
2022/02/08 19:44:35;;;;;;;12.55;6.32;;;9.20;99.90;;;;;;4977497;28;20636;-68
2022/02/08 19:47:02;;;;;;;12.23;6.97;;;9.20;99.90;;;;;;4991959;28;20133;-68
2022/02/08 19:49:28;;;;;;;18.02;7.32;;;9.30;99.90;;;;;;4977568;28;20046;-68
2022/02/08 19:51:54;;;;;;;16.15;7.70;;;9.20;99.90;;;;;;4990764;28;20430;-68
2022/02/08 19:54:28;;;;;;;17.92;8.75;;;9.20;99.90;;;;;;4985127;28;20124;-69
2022/02/08 19:59:33;;;;;;;15.70;9.40;;;9.10;99.90;;;;;;5006020;28;20142;-69
2022/02/08 20:02:00;;;;;;;16.75;9.23;;;9.00;99.90;;;;;;4999258;28;20056;-69
2022/02/08 20:04:27;;;;;;;18.25;10.63;;;9.00;99.90;;;;;;4988536;28;20049;-69
2022/02/08 20:06:57;;;;;;;19.73;10.27;;;8.90;99.90;;;;;;4989197;28;20046;-68
2022/02/08 20:09:24;;;;;;;21.30;10.82;;;9.00;99.90;;;;;;4986495;28;20088;-69
2022/02/08 20:11:51;;;;;;;19.77;10.90;;;8.90;99.90;;;;;;4997165;28;20057;-68
2022/02/08 20:14:17;;;;;;;19.30;11.75;;;8.90;99.90;;;;;;4984437;28;20054;-68
2022/02/08 20:16:44;;;;;;;24.30;11.38;;;8.80;99.90;;;;;;4993388;28;20228;-70
2022/02/08 20:19:11;;;;;;;20.70;11.82;;;8.90;99.90;;;;;;4986417;28;20044;-68
2022/02/08 20:21:38;;;;;;;19.73;11.52;;;8.90;99.90;;;;;;4987914;28;20049;-68
2022/02/08 20:24:08;;;;;;;21.77;11.35;;;8.90;99.90;;;;;;4970758;28;20046;-68